createdAt,value
2023-01-29T00:01:59.601Z,75.12
2023-01-29T00:04:27.287Z,74.87
2023-01-29T00:06:58.366Z,75.41
2023-01-29T00:09:28.618Z,76.13
2023-01-29T00:11:56.941Z,75.68
2023-01-29T00:14:24.399Z,75.38
2023-01-29T00:16:52.647Z,75.08
2023-01-29T00:19:20.500Z,76.00
2023-01-29T00:21:48.840Z,76.45
2023-01-29T00:24:19.030Z,75.66
2023-01-29T00:26:48.678Z,76.36
2023-01-29T00:29:16.454Z,76.67
2023-01-29T00:31:45.825Z,76.20
2023-01-29T00:34:13.982Z,75.47
2023-01-29T00:36:42.757Z,76.18
2023-01-29T00:39:11.119Z,75.24
2023-01-29T00:41:39.470Z,75.56
2023-01-29T00:44:08.590Z,76.52
2023-01-29T00:46:37.009Z,75.86
2023-01-29T00:49:06.889Z,76.02
2023-01-29T00:51:35.587Z,76.21
2023-01-29T00:54:03.743Z,76.18
2023-01-29T00:56:32.334Z,75.16
2023-01-29T00:59:03.250Z,74.45
2023-01-29T01:01:33.062Z,76.30
2023-01-29T01:04:00.863Z,75.77
2023-01-29T01:06:28.964Z,75.46
2023-01-29T01:08:56.454Z,75.64
2023-01-29T01:11:24.397Z,75.28
2023-01-29T01:13:52.036Z,75.51
2023-01-29T01:16:20.073Z,75.53
2023-01-29T01:18:49.323Z,75.54
2023-01-29T01:21:17.199Z,75.29
2023-01-29T01:23:44.699Z,75.60
2023-01-29T01:26:12.534Z,75.13
2023-01-29T01:28:40.133Z,75.39
2023-01-29T01:31:12.205Z,75.29
2023-01-29T01:33:40.554Z,75.16
2023-01-29T01:36:10.228Z,75.20
2023-01-29T01:38:38.015Z,74.61
2023-01-29T01:41:06.629Z,74.09
2023-01-29T01:43:48.670Z,74.17
2023-01-29T01:46:16.923Z,73.91
2023-01-29T01:48:47.118Z,72.95
2023-01-29T01:51:16.921Z,72.64
2023-01-29T01:53:54.294Z,72.85
2023-01-29T01:56:27.858Z,73.03
2023-01-29T01:58:59.673Z,73.09
2023-01-29T02:01:28.436Z,73.21
2023-01-29T02:03:56.641Z,74.07
2023-01-29T02:06:26.831Z,73.49
2023-01-29T02:08:58.762Z,73.78
2023-01-29T02:11:26.781Z,74.58
2023-01-29T02:13:54.551Z,74.25
2023-01-29T02:16:23.745Z,75.07
2023-01-29T02:18:51.542Z,74.49
2023-01-29T02:21:49.734Z,74.23
2023-01-29T02:24:50.929Z,73.56
2023-01-29T02:27:22.244Z,73.56
2023-01-29T02:29:59.433Z,74.25
2023-01-29T02:32:33.002Z,73.00
2023-01-29T02:35:16.171Z,73.26
2023-01-29T02:37:54.405Z,73.57
2023-01-29T02:40:29.560Z,73.22
2023-01-29T02:43:07.196Z,73.55
2023-01-29T02:45:45.786Z,73.09
2023-01-29T02:48:18.736Z,73.18
2023-01-29T02:50:53.932Z,73.81
2023-01-29T02:53:28.081Z,73.62
2023-01-29T02:56:02.833Z,74.28
2023-01-29T02:58:36.121Z,74.76
2023-01-29T03:01:09.789Z,73.56
2023-01-29T03:03:42.466Z,72.70
2023-01-29T03:06:15.444Z,73.30
2023-01-29T03:08:47.310Z,73.07
2023-01-29T03:11:16.883Z,72.24
2023-01-29T03:13:48.601Z,72.29
2023-01-29T03:16:24.477Z,72.39
2023-01-29T03:18:57.366Z,72.83
2023-01-29T03:21:31.691Z,72.24
2023-01-29T03:24:00.379Z,71.65
2023-01-29T03:26:28.564Z,72.01
2023-01-29T03:28:58.008Z,71.70
2023-01-29T03:31:29.282Z,71.42
2023-01-29T03:34:04.045Z,72.40
2023-01-29T03:36:36.431Z,72.52
2023-01-29T03:39:05.046Z,72.87
2023-01-29T03:41:36.561Z,72.29
2023-01-29T03:44:13.195Z,72.44
2023-01-29T03:46:49.109Z,73.36
2023-01-29T03:49:24.112Z,72.41
2023-01-29T03:51:56.662Z,72.29
2023-01-29T03:54:27.289Z,72.97
2023-01-29T03:57:00.552Z,72.98
2023-01-29T03:59:37.922Z,72.96
2023-01-29T04:02:12.256Z,73.09
2023-01-29T04:04:43.798Z,72.66
2023-01-29T04:07:15.602Z,73.26
2023-01-29T04:09:50.672Z,73.00
2023-01-29T04:12:21.784Z,72.51
2023-01-29T04:14:51.116Z,73.08
2023-01-29T04:17:23.593Z,74.11
2023-01-29T04:19:54.872Z,73.67
2023-01-29T04:22:27.770Z,74.21
2023-01-29T04:24:56.089Z,73.77
2023-01-29T04:27:30.093Z,73.46
2023-01-29T04:30:13.889Z,73.24
2023-01-29T04:32:54.025Z,73.31
2023-01-29T04:35:31.779Z,72.70
2023-01-29T04:38:11.603Z,73.09
2023-01-29T04:40:49.637Z,72.72
2023-01-29T04:43:25.922Z,72.53
2023-01-29T04:46:08.484Z,73.03
2023-01-29T04:48:46.696Z,72.93
2023-01-29T04:51:23.442Z,72.18
2023-01-29T04:53:58.748Z,71.70
2023-01-29T04:56:33.411Z,71.88
2023-01-29T04:59:07.154Z,71.94
2023-01-29T05:01:38.034Z,72.38
2023-01-29T05:04:11.681Z,72.22
2023-01-29T05:06:40.588Z,72.09
2023-01-29T05:09:09.405Z,72.35
2023-01-29T05:11:37.611Z,71.90
2023-01-29T05:14:09.359Z,71.52
2023-01-29T05:16:42.718Z,72.17
2023-01-29T05:19:14.849Z,72.87
2023-01-29T05:21:47.941Z,72.02
2023-01-29T05:24:18.014Z,71.99
2023-01-29T05:26:49.279Z,71.39
2023-01-29T05:29:16.835Z,71.72
2023-01-29T05:31:45.295Z,73.34
2023-01-29T05:34:17.126Z,72.60
2023-01-29T05:36:45.267Z,72.26
2023-01-29T05:39:12.924Z,72.40
2023-01-29T05:41:40.971Z,72.31
2023-01-29T05:44:10.645Z,71.63
2023-01-29T05:46:39.082Z,71.71
2023-01-29T05:49:06.945Z,71.88
2023-01-29T05:51:36.292Z,71.76
2023-01-29T05:54:04.332Z,71.03
2023-01-29T05:56:32.392Z,71.58
2023-01-29T05:58:59.877Z,71.13
2023-01-29T06:01:27.759Z,71.96
2023-01-29T06:03:55.478Z,71.54
2023-01-29T06:06:23.574Z,71.67
2023-01-29T06:08:53.304Z,71.80
2023-01-29T06:11:21.243Z,70.68
2023-01-29T06:13:49.095Z,70.75
2023-01-29T06:16:17.384Z,71.97
2023-01-29T06:18:45.032Z,71.00
2023-01-29T06:21:14.749Z,71.49
2023-01-29T06:23:42.233Z,72.12
2023-01-29T06:26:14.584Z,72.08
2023-01-29T06:28:42.061Z,72.43
2023-01-29T06:31:30.387Z,72.63
2023-01-29T06:33:59.281Z,72.76
2023-01-29T06:36:27.405Z,72.84
2023-01-29T06:38:55.035Z,73.72
2023-01-29T06:41:24.842Z,73.03
2023-01-29T06:43:52.775Z,71.93
2023-01-29T06:46:21.012Z,73.36
2023-01-29T06:48:48.615Z,72.70
2023-01-29T06:51:16.648Z,73.19
2023-01-29T06:53:47.021Z,73.79
2023-01-29T06:56:15.040Z,73.40
2023-01-29T06:58:44.020Z,73.10
2023-01-29T07:01:22.296Z,72.94
2023-01-29T07:04:00.582Z,73.08
2023-01-29T07:06:29.140Z,72.70
2023-01-29T07:08:56.923Z,73.64
2023-01-29T07:11:24.845Z,73.53
2023-01-29T07:13:53.843Z,73.48
2023-01-29T07:16:22.069Z,72.91
2023-01-29T07:18:49.640Z,72.80
2023-01-29T07:21:18.100Z,72.77
2023-01-29T07:23:45.679Z,73.71
2023-01-29T07:26:14.051Z,72.83
2023-01-29T07:28:41.788Z,73.54
2023-01-29T07:31:13.967Z,73.55
2023-01-29T07:33:43.367Z,74.26
2023-01-29T07:36:12.283Z,73.00
2023-01-29T07:38:39.847Z,73.06
2023-01-29T07:41:08.000Z,73.46
2023-01-29T07:43:35.691Z,74.93
2023-01-29T07:46:04.574Z,74.12
2023-01-29T07:48:33.969Z,73.88
2023-01-29T07:51:02.273Z,72.97
2023-01-29T07:53:30.031Z,73.77
2023-01-29T07:55:58.208Z,72.83
2023-01-29T07:58:25.802Z,72.78
2023-01-29T08:00:53.815Z,72.70
2023-01-29T08:03:21.298Z,72.46
2023-01-29T08:05:50.891Z,72.78
2023-01-29T08:08:18.523Z,72.98
2023-01-29T08:10:47.028Z,72.07
2023-01-29T08:13:15.687Z,72.59
2023-01-29T08:15:44.645Z,72.59
2023-01-29T08:18:12.296Z,72.11
2023-01-29T08:20:40.590Z,72.35
2023-01-29T08:23:15.699Z,72.18
2023-01-29T08:25:44.709Z,71.98
2023-01-29T08:28:12.382Z,72.74
2023-01-29T08:30:40.601Z,72.82
2023-01-29T08:33:08.208Z,73.27
2023-01-29T08:35:36.532Z,72.10
2023-01-29T08:38:05.317Z,71.83
2023-01-29T08:40:35.727Z,71.84
2023-01-29T08:43:06.158Z,71.41
2023-01-29T08:45:37.151Z,72.32
2023-01-29T08:48:05.776Z,72.05
2023-01-29T08:50:34.253Z,72.12
2023-01-29T08:53:02.916Z,70.90
2023-01-29T08:55:33.909Z,71.03
2023-01-29T08:58:03.990Z,71.68
2023-01-29T09:00:32.205Z,71.08
2023-01-29T09:02:59.668Z,71.76
2023-01-29T09:05:28.259Z,70.82
2023-01-29T09:07:57.564Z,71.08
2023-01-29T09:10:25.761Z,72.33
2023-01-29T09:12:53.437Z,70.24
2023-01-29T09:15:23.040Z,71.31
2023-01-29T09:17:50.553Z,70.77
2023-01-29T09:20:19.052Z,71.43
2023-01-29T09:22:47.106Z,71.32
2023-01-29T09:25:15.667Z,70.93
2023-01-29T09:27:43.410Z,68.66
2023-01-29T09:30:12.301Z,69.71
2023-01-29T09:32:53.144Z,69.30
2023-01-29T09:35:22.192Z,69.33
2023-01-29T09:37:50.383Z,68.66
2023-01-29T09:40:24.921Z,68.86
2023-01-29T09:42:58.005Z,69.50
2023-01-29T09:45:28.428Z,69.29
2023-01-29T09:48:00.534Z,68.07
2023-01-29T09:50:32.987Z,68.18
2023-01-29T09:53:07.853Z,69.01
2023-01-29T09:55:43.171Z,67.18
2023-01-29T09:58:19.124Z,66.97
2023-01-29T10:00:59.019Z,67.31
2023-01-29T10:04:02.719Z,66.18
2023-01-29T10:06:51.392Z,66.70
2023-01-29T10:10:01.354Z,67.87
2023-01-29T10:12:45.115Z,67.22
2023-01-29T10:15:23.298Z,67.80
2023-01-29T10:18:06.666Z,68.15
2023-01-29T10:20:54.011Z,68.40
2023-01-29T10:23:27.310Z,67.60
2023-01-29T10:25:54.553Z,69.04
2023-01-29T10:28:29.523Z,68.43
2023-01-29T10:31:00.736Z,67.60
2023-01-29T10:33:54.301Z,68.15
2023-01-29T10:36:28.850Z,67.59
2023-01-29T10:38:57.164Z,67.71
2023-01-29T10:41:39.297Z,67.68
2023-01-29T10:44:22.947Z,66.86
2023-01-29T10:47:05.696Z,67.26
2023-01-29T10:49:51.197Z,67.65
2023-01-29T10:52:35.301Z,67.71
2023-01-29T10:55:17.710Z,67.02
2023-01-29T10:57:59.642Z,67.78
2023-01-29T11:00:30.321Z,67.94
2023-01-29T11:02:58.168Z,68.42
2023-01-29T11:05:30.675Z,68.64
2023-01-29T11:08:07.577Z,68.08
2023-01-29T11:10:42.340Z,68.29
2023-01-29T11:13:14.805Z,68.29
2023-01-29T11:15:43.654Z,68.71
2023-01-29T11:18:13.269Z,68.97
2023-01-29T11:20:42.397Z,68.24
2023-01-29T11:23:27.113Z,68.84
2023-01-29T11:25:56.998Z,68.04
2023-01-29T11:28:38.742Z,68.39
2023-01-29T11:31:21.090Z,67.86
2023-01-29T11:33:50.460Z,69.86
2023-01-29T11:36:29.328Z,69.62
2023-01-29T11:39:18.353Z,70.23
2023-01-29T11:41:50.802Z,70.20
2023-01-29T11:44:28.256Z,71.12
2023-01-29T11:46:59.311Z,70.42
2023-01-29T11:49:33.864Z,70.23
2023-01-29T11:52:06.458Z,71.51
2023-01-29T11:54:40.759Z,71.22
2023-01-29T11:57:27.851Z,71.35
2023-01-29T11:59:58.489Z,71.95
2023-01-29T12:02:32.299Z,71.51
2023-01-29T12:05:04.792Z,71.97
2023-01-29T12:07:34.311Z,71.61
2023-01-29T12:10:03.505Z,71.65
2023-01-29T12:12:37.539Z,71.64
2023-01-29T12:15:17.242Z,71.70
2023-01-29T12:17:52.261Z,71.68
2023-01-29T12:20:26.875Z,70.62
2023-01-29T12:23:03.125Z,71.61
2023-01-29T12:25:41.750Z,71.92
2023-01-29T12:28:28.041Z,72.02
2023-01-29T12:31:12.014Z,70.14
2023-01-29T12:33:46.668Z,70.89
2023-01-29T12:36:21.707Z,71.10
2023-01-29T12:38:50.015Z,70.29
2023-01-29T12:41:30.237Z,70.06
2023-01-29T12:44:04.754Z,70.56
2023-01-29T12:46:37.988Z,70.34
2023-01-29T12:49:15.501Z,70.03
2023-01-29T12:51:52.943Z,70.47
2023-01-29T12:54:27.932Z,70.51
2023-01-29T12:57:02.806Z,70.97
2023-01-29T12:59:36.560Z,70.88
2023-01-29T13:02:14.518Z,70.70
2023-01-29T13:04:47.894Z,70.19
2023-01-29T13:07:17.680Z,70.32
2023-01-29T13:09:51.201Z,71.52
2023-01-29T13:12:23.263Z,71.88
2023-01-29T13:14:56.622Z,69.83
2023-01-29T13:17:25.976Z,70.60
2023-01-29T13:19:58.527Z,70.38
2023-01-29T13:22:29.640Z,71.27
2023-01-29T13:25:04.147Z,71.50
2023-01-29T13:27:36.735Z,71.60
2023-01-29T13:30:05.776Z,70.59
2023-01-29T13:32:36.008Z,71.12
2023-01-29T13:35:06.413Z,71.04
2023-01-29T13:37:37.025Z,70.87
2023-01-29T13:40:11.533Z,71.84
2023-01-29T13:42:45.477Z,71.37
2023-01-29T13:45:21.436Z,71.72
2023-01-29T13:47:50.932Z,71.69
2023-01-29T13:50:24.840Z,71.08
2023-01-29T13:52:58.045Z,71.46
2023-01-29T13:55:31.639Z,71.86
2023-01-29T13:58:01.641Z,71.55
2023-01-29T14:00:57.493Z,72.44
2023-01-29T14:04:04.063Z,72.60
2023-01-29T14:06:51.924Z,72.57
2023-01-29T14:09:55.530Z,73.10
2023-01-29T14:12:44.054Z,74.13
2023-01-29T14:15:28.822Z,73.96
2023-01-29T14:18:00.541Z,74.60
2023-01-29T14:20:45.717Z,73.43
2023-01-29T14:23:28.321Z,74.64
2023-01-29T14:25:56.443Z,73.99
2023-01-29T14:28:28.652Z,73.50
2023-01-29T14:30:59.278Z,73.35
2023-01-29T14:33:36.743Z,72.84
2023-01-29T14:36:06.894Z,73.59
2023-01-29T14:38:35.604Z,73.77
2023-01-29T14:41:07.952Z,73.76
2023-01-29T14:43:35.681Z,74.17
2023-01-29T14:46:41.796Z,74.63
2023-01-29T14:49:11.636Z,74.95
2023-01-29T14:51:43.357Z,74.12
2023-01-29T14:54:28.220Z,75.57
2023-01-29T14:57:01.899Z,75.98
2023-01-29T14:59:34.803Z,75.76
2023-01-29T15:02:12.566Z,75.90
2023-01-29T15:04:47.639Z,75.66
2023-01-29T15:07:30.613Z,75.93
2023-01-29T15:10:21.402Z,75.45
2023-01-29T15:12:56.405Z,74.52
2023-01-29T15:15:35.087Z,75.23
2023-01-29T15:18:08.103Z,74.78
2023-01-29T15:20:39.232Z,74.98
2023-01-29T15:23:25.299Z,74.90
2023-01-29T15:25:56.468Z,75.49
2023-01-29T15:28:24.320Z,75.50
2023-01-29T15:30:55.763Z,75.23
2023-01-29T15:33:23.874Z,75.70
2023-01-29T15:36:06.932Z,75.90
2023-01-29T15:38:35.675Z,75.32
2023-01-29T15:41:16.532Z,75.78
2023-01-29T15:43:46.089Z,76.22
2023-01-29T15:46:24.863Z,75.92
2023-01-29T15:48:57.278Z,76.22
2023-01-29T15:51:29.086Z,75.89
2023-01-29T15:53:59.894Z,75.77
2023-01-29T15:56:32.393Z,75.57
2023-01-29T15:59:07.320Z,75.74
2023-01-29T16:01:37.647Z,76.57
2023-01-29T16:04:06.145Z,76.43
2023-01-29T16:06:38.965Z,76.22
2023-01-29T16:09:08.098Z,77.33
2023-01-29T16:11:36.405Z,77.10
2023-01-29T16:14:05.691Z,77.03
2023-01-29T16:16:34.380Z,77.51
2023-01-29T16:19:02.154Z,77.61
2023-01-29T16:21:34.230Z,77.68
2023-01-29T16:24:08.250Z,77.99
2023-01-29T16:26:39.376Z,77.92
2023-01-29T16:29:09.826Z,78.65
2023-01-29T16:31:40.131Z,78.08
2023-01-29T16:34:10.163Z,78.12
2023-01-29T16:36:46.016Z,78.00
2023-01-29T16:39:22.576Z,78.29
2023-01-29T16:42:20.389Z,78.27
2023-01-29T16:44:51.801Z,77.79
2023-01-29T16:47:28.008Z,78.58
2023-01-29T16:50:00.132Z,78.42
2023-01-29T16:52:31.420Z,77.57
2023-01-29T16:55:03.171Z,78.17
2023-01-29T16:57:33.685Z,78.53
2023-01-29T17:00:06.738Z,78.94
2023-01-29T17:02:39.535Z,78.93
2023-01-29T17:05:15.369Z,78.22
2023-01-29T17:07:46.433Z,77.89
2023-01-29T17:10:18.552Z,78.36
2023-01-29T17:12:53.516Z,78.47
2023-01-29T17:15:36.124Z,78.81
2023-01-29T17:18:11.992Z,78.71
2023-01-29T17:20:39.557Z,79.11
2023-01-29T17:23:08.160Z,77.90
2023-01-29T17:25:37.891Z,78.24
2023-01-29T17:28:06.339Z,78.12
2023-01-29T17:30:35.537Z,78.00
2023-01-29T17:33:13.857Z,78.21
2023-01-29T17:35:42.513Z,78.43
2023-01-29T17:38:24.332Z,78.93
2023-01-29T17:40:58.305Z,78.65
2023-01-29T17:43:26.667Z,78.70
2023-01-29T17:45:54.647Z,78.53
2023-01-29T17:48:24.417Z,77.84
2023-01-29T17:50:54.725Z,77.48
2023-01-29T17:53:26.581Z,76.87
2023-01-29T17:55:59.522Z,77.44
2023-01-29T17:58:28.532Z,77.82
2023-01-29T18:00:56.224Z,77.77
2023-01-29T18:03:24.450Z,77.99
2023-01-29T18:05:52.139Z,77.77
2023-01-29T18:08:25.691Z,77.66
2023-01-29T18:10:53.380Z,77.96
2023-01-29T18:13:22.827Z,78.21
2023-01-29T18:15:50.793Z,78.36
2023-01-29T18:18:20.420Z,77.45
2023-01-29T18:20:47.921Z,77.83
2023-01-29T18:23:16.703Z,77.71
2023-01-29T18:25:44.246Z,78.25
2023-01-29T18:28:15.056Z,77.82
2023-01-29T18:30:44.764Z,77.47
2023-01-29T18:33:12.873Z,78.40
2023-01-29T18:35:40.695Z,78.15
2023-01-29T18:38:10.376Z,78.01
2023-01-29T18:40:37.931Z,78.35
2023-01-29T18:43:06.291Z,78.91
2023-01-29T18:45:34.178Z,78.13
2023-01-29T18:48:03.823Z,78.38
2023-01-29T18:50:31.867Z,78.19
2023-01-29T18:53:00.674Z,77.95
2023-01-29T18:55:28.291Z,77.87
2023-01-29T18:58:34.221Z,78.63
2023-01-29T19:00:44.754Z,78.47
2023-01-29T19:03:17.320Z,78.13
2023-01-29T19:05:45.094Z,77.47
2023-01-29T19:08:13.720Z,77.58
2023-01-29T19:10:41.517Z,76.94
2023-01-29T19:13:09.843Z,76.84
2023-01-29T19:15:37.740Z,77.85
2023-01-29T19:18:06.244Z,77.90
2023-01-29T19:20:35.362Z,78.14
2023-01-29T19:23:06.107Z,77.75
2023-01-29T19:25:37.355Z,77.39
2023-01-29T19:28:06.610Z,77.13
2023-01-29T19:30:34.281Z,76.92
2023-01-29T19:33:02.759Z,76.60
2023-01-29T19:35:31.138Z,77.00
2023-01-29T19:38:01.484Z,76.72
2023-01-29T19:40:29.140Z,76.39
2023-01-29T19:42:57.645Z,75.93
2023-01-29T19:45:37.159Z,76.15
2023-01-29T19:48:15.972Z,75.50
2023-01-29T19:50:43.605Z,76.11
2023-01-29T19:53:13.306Z,76.22
2023-01-29T19:55:41.033Z,76.24
2023-01-29T19:58:09.217Z,76.78
2023-01-29T20:00:37.227Z,77.12
2023-01-29T20:03:05.341Z,77.62
2023-01-29T20:05:35.804Z,77.63
2023-01-29T20:08:04.561Z,76.97
2023-01-29T20:10:33.679Z,76.67
2023-01-29T20:13:02.028Z,76.58
2023-01-29T20:15:30.046Z,75.26
2023-01-29T20:17:58.242Z,74.97
2023-01-29T20:20:27.710Z,75.59
2023-01-29T20:23:01.124Z,75.25
2023-01-29T20:25:30.769Z,75.02
2023-01-29T20:28:00.567Z,75.11
2023-01-29T20:30:28.279Z,75.17
2023-01-29T20:32:56.800Z,75.56
2023-01-29T20:35:25.980Z,75.64
2023-01-29T20:37:54.488Z,75.53
2023-01-29T20:40:22.165Z,75.62
2023-01-29T20:42:50.490Z,75.37
2023-01-29T20:45:20.487Z,75.23
2023-01-29T20:47:48.937Z,75.17
2023-01-29T20:50:18.187Z,75.25
2023-01-29T20:52:47.211Z,75.69
2023-01-29T20:55:15.322Z,75.41
2023-01-29T20:57:43.474Z,75.63
2023-01-29T21:00:14.540Z,75.58
2023-01-29T21:02:44.007Z,75.13
2023-01-29T21:05:11.826Z,75.73
2023-01-29T21:07:41.181Z,75.81
2023-01-29T21:10:10.241Z,75.20
2023-01-29T21:12:38.399Z,75.80
2023-01-29T21:15:07.378Z,75.47
2023-01-29T21:17:35.705Z,75.46
2023-01-29T21:20:05.830Z,75.25
2023-01-29T21:22:34.422Z,75.37
2023-01-29T21:25:02.123Z,75.69
2023-01-29T21:27:31.270Z,75.24
2023-01-29T21:29:59.084Z,74.84
2023-01-29T21:32:27.303Z,75.79
2023-01-29T21:34:55.555Z,75.75
2023-01-29T21:37:25.355Z,74.67
2023-01-29T21:39:53.237Z,74.21
2023-01-29T21:42:21.333Z,74.37
2023-01-29T21:44:49.259Z,74.38
2023-01-29T21:47:17.322Z,74.91
2023-01-29T21:49:47.363Z,75.44
2023-01-29T21:52:15.965Z,74.88
2023-01-29T21:54:45.469Z,74.09
2023-01-29T21:57:17.233Z,74.54
2023-01-29T21:59:48.264Z,74.79
2023-01-29T22:02:23.665Z,74.42
2023-01-29T22:04:52.003Z,74.61
2023-01-29T22:07:19.996Z,75.27
2023-01-29T22:09:49.461Z,75.14
2023-01-29T22:12:17.689Z,74.86
2023-01-29T22:14:45.168Z,74.27
2023-01-29T22:17:14.014Z,74.02
2023-01-29T22:19:41.953Z,74.75
2023-01-29T22:22:13.760Z,74.23
2023-01-29T22:24:41.396Z,74.66
2023-01-29T22:27:11.399Z,74.74
2023-01-29T22:29:41.261Z,74.69
2023-01-29T22:32:10.713Z,74.07
2023-01-29T22:34:38.511Z,74.74
2023-01-29T22:37:09.347Z,74.17
2023-01-29T22:39:37.152Z,73.87
2023-01-29T22:42:05.874Z,73.73
2023-01-29T22:44:34.978Z,73.49
2023-01-29T22:47:05.611Z,72.67
2023-01-29T22:49:33.114Z,73.13
2023-01-29T22:52:01.242Z,72.72
2023-01-29T22:54:28.805Z,72.59
2023-01-29T22:56:56.888Z,73.02
2023-01-29T22:59:24.559Z,72.79
2023-01-29T23:02:00.203Z,72.98
2023-01-29T23:04:28.030Z,73.04
2023-01-29T23:06:56.308Z,72.67
2023-01-29T23:09:23.889Z,73.21
2023-01-29T23:11:52.133Z,73.04
2023-01-29T23:14:19.868Z,72.44
2023-01-29T23:16:48.059Z,72.21
2023-01-29T23:19:17.301Z,72.33
2023-01-29T23:21:45.984Z,72.40
2023-01-29T23:24:13.595Z,72.48
2023-01-29T23:26:41.959Z,72.82
2023-01-29T23:29:10.057Z,72.20
2023-01-29T23:31:38.323Z,72.51
2023-01-29T23:34:06.325Z,72.75
2023-01-29T23:36:37.847Z,73.39
2023-01-29T23:39:05.660Z,73.36
2023-01-29T23:41:34.340Z,73.23
2023-01-29T23:44:02.013Z,72.52
2023-01-29T23:46:30.374Z,72.78
2023-01-29T23:48:58.474Z,72.77
2023-01-29T23:51:26.656Z,72.93
2023-01-29T23:53:55.914Z,73.26
2023-01-29T23:56:24.197Z,73.06
2023-01-29T23:58:53.919Z,73.11
